Kindersley Airport, Saskatchewan

Past 24 Hour Conditions

Date / Time
(CST)
Conditions Temp
(°F)
Humidity
(%)
Dew Point
(°F)
Wind
(mph)
Pressure
(inches)
Vis
(mi)
Wind Chill
24 November 2014
3:00 Mostly Cloudy 10 86 6 calm 30.0 15 7
2:00 Mostly Cloudy 10 85 6 NNW 4 30.0 15 3
1:00 Mostly Cloudy 11 85 7 WNW 6 29.9 15 1
00:00 Mostly Cloudy 14 85 10 SE 4 29.9 15 6
23 November 2014
23:00 Mostly Cloudy 11 85 7 SE 6 29.9 15 1
22:00 Mostly Cloudy 11 85 7 SSE 9 29.9 15 -2
21:00 Partly Cloudy 9 86 5 SE 10 29.9 15 -5
20:00 Mostly Cloudy 10 85 6 ESE 9 29.9 15 -3
19:00 Mostly Cloudy 8   84 4 ESE 7 29.9 15 -4
18:00 Mostly Cloudy 8   87 5 SSE 8 29.9 15 -4
17:00 Partly Cloudy 10 85 6 ESE 3 29.9 15 5
16:00 Mainly Sunny 17 78 11 NW 2 29.9 15 14
15:00 Mainly Sunny 17 77 11 NW 7 29.9 15 8
14:00 Mainly Sunny 17 79 12 WNW 8 29.9 15 7
13:00 Mainly Sunny 16 81 12 WNW 9 29.9 15 5
12:00 Partly Cloudy 16 78 10 WNW 7 29.9 15 6
11:00 Mostly Cloudy 14 80 9 NW 9 29.9 15 2
10:00 Mostly Cloudy 14 83 10 WNW 7 29.9 15 4
9:00 Light Snow 15 87 12 WNW 10 29.9 4 3
8:00 Light Snow 16 86 12 WNW 13 29.9 3 2
7:00 Light Snow 17 87 14 WNW 11 29.9 3 4
6:00 Light Snow 19 89 17 NW 12 29.8 3 7
5:00 Light Snow 20 88 17 NW 10 29.8 3 9
4:00 Light Snow 20 88 17 NW 9 29.8 10 10
3:00 Light Snow 21   89 18 NW 10 29.7 4 10
N/A Not available
↑ Highest temperature
↓ Lowest temperature
* Value not significant.

If you require additional historical weather information, please visit Climate Data Online.

Date modified: